Darstellungsparameter: Aktuell verwendete Einstellungen:
Skalierung der Graphiken ... ?
xyx+y,   Skalierungsfaktor:      Skalierung: Modus: x, Faktor: 1
Darstellungszeitraum ... ?
Vom - - bis: - -   Zeitraum: 15.07.2015 - 14.08.2015
Min/Max/Avg-Anzeige ... ?
Zeige MMA aktuell
Zeige MMA Monat
Zeige MMA alles
Zeige --A aktuell
Zeige --A Monat
Zeige --A alles
Keine MMA-Anzeige
MMA:
Keine MMA-Graphiken
MMA-Basis: 15.07.2015 - 14.08.2015
Quicknavigation für Darstellung... ?
Tage:      1T, 2T, 3T, 5T -1T -2T -3T -5T +1T +2T +3T +5T
Wochen: 1W, 2W, 3W -1W -2W -3W +1W +2W +3W
Monate: 1M, 3M, 6M -1M -3M -6M +1M +3M +6M
Jahre:    1J, 3J, 5J, 10J -1J -3J -5J -10J +1J +3J +5J +10J
Nutze für die Darstellung ... ?
Originaldaten oder ...
Mittelwerte Minima Maxima auf...
Stundenbasis Tagesbasis Wochenbasis
Monatsbasis Jahresbasis      Datenbasis: Mittelwerte auf Stundenbasis
Darstellen als:
Statistik (Auto) Statistik J:M      Darstellung:
Zur Graphik,    zurück zur Übersicht aller Sensoren.
 
Tabellarische Datenbersicht: ?
 
Sensor: Nr:Datum:Temp:Feuchte:Taupunkt:
Aussen-T/F 1 15-07-2015 00:00:00 19.29167 C 81.4167 % 16.03 C
2 15-07-2015 01:00:00 18.725 C 83.8333 % 15.94 C
3 15-07-2015 02:00:00 18.55833 C 83.8333 % 15.77 C
4 15-07-2015 03:00:00 18.19167 C 85.2500 % 15.67 C
5 15-07-2015 04:00:00 18.13333 C 84.9167 % 15.56 C
6 15-07-2015 05:00:00 17.63333 C 86.5833 % 15.37 C
7 15-07-2015 06:00:00 17.41667 C 87.9167 % 15.39 C
8 15-07-2015 07:00:00 17.97778 C 85.4444 % 15.5 C
9 15-07-2015 08:00:00 18.98333 C 82.0000 % 15.84 C
10 15-07-2015 09:00:00 19.95833 C 77.5833 % 15.92 C
11 15-07-2015 10:00:00 21.41667 C 72.9167 % 16.36 C
12 15-07-2015 11:00:00 23 C 65.9167 % 16.29 C
13 15-07-2015 12:00:00 25.175 C 58.6667 % 16.51 C
14 15-07-2015 13:00:00 27.04167 C 51.1667 % 16.09 C
15 15-07-2015 14:00:00 27.81667 C 47.6667 % 15.69 C
16 15-07-2015 15:00:00 28.85833 C 46.5000 % 16.25 C
17 15-07-2015 16:00:00 28.01667 C 50.0000 % 16.62 C
18 15-07-2015 17:00:00 24.95 C 71.1667 % 19.36 C
19 15-07-2015 18:00:00 22.25 C 88.1667 % 20.2 C
20 15-07-2015 19:00:00 22.03333 C 85.5000 % 19.49 C
21 15-07-2015 20:00:00 21.71667 C 83.0833 % 18.72 C
22 15-07-2015 21:00:00 21.79167 C 81.7500 % 18.53 C
23 15-07-2015 22:00:00 19.68333 C 89.1667 % 17.85 C
24 15-07-2015 23:00:00 18.725 C 91.1667 % 17.25 C
25 16-07-2015 00:00:00 18.175 C 92.5833 % 16.95 C
Sensor: Nr:Datum:Temp:Feuchte:Taupunkt:
Aussen-T/F 26 16-07-2015 01:00:00 17.8 C 93.6667 % 16.77 C
27 16-07-2015 02:00:00 17.28333 C 94.3333 % 16.36 C
28 16-07-2015 03:00:00 17.04167 C 95.0000 % 16.23 C
29 16-07-2015 04:00:00 16.775 C 95.3333 % 16.02 C
30 16-07-2015 05:00:00 16.76667 C 95.6667 % 16.07 C
31 16-07-2015 06:00:00 17.06667 C 96.0000 % 16.42 C
32 16-07-2015 07:00:00 17.38333 C 95.5833 % 16.67 C
33 16-07-2015 08:00:00 19.05833 C 92.6667 % 17.84 C
34 16-07-2015 09:00:00 21.3 C 84.5000 % 18.58 C
35 16-07-2015 10:00:00 23.23333 C 76.8333 % 18.94 C
36 16-07-2015 11:00:00 25.55 C 67.6667 % 19.13 C
37 16-07-2015 12:00:00 27.61667 C 59.3333 % 18.97 C
38 16-07-2015 13:00:00 29.3 C 52.8333 % 18.68 C
39 16-07-2015 14:00:00 30.45 C 48.5833 % 18.39 C
40 16-07-2015 15:00:00 30.05833 C 49.4167 % 18.3 C
41 16-07-2015 16:00:00 31.68333 C 45.5000 % 18.46 C
42 16-07-2015 17:00:00 33.25833 C 40.5000 % 18.02 C
43 16-07-2015 18:00:00 33.875 C 38.5000 % 17.76 C
44 16-07-2015 19:00:00 32.90833 C 42.2500 % 18.38 C
45 16-07-2015 20:00:00 28.1 C 57.5833 % 18.94 C
46 16-07-2015 21:00:00 24.98333 C 66.3333 % 18.27 C
47 16-07-2015 22:00:00 23.65 C 68.9167 % 17.61 C
48 16-07-2015 23:00:00 22.775 C 70.4167 % 17.11 C
49 17-07-2015 00:00:00 21.91667 C 72.8333 % 16.82 C
50 17-07-2015 01:00:00 20.79167 C 76.5000 % 16.51 C
Sensor: Nr:Datum:Temp:Feuchte:Taupunkt:
Aussen-T/F 51 17-07-2015 02:00:00 20.49167 C 79.5000 % 16.82 C
52 17-07-2015 03:00:00 20.30833 C 82.1667 % 17.17 C
53 17-07-2015 04:00:00 20.2 C 83.1667 % 17.25 C
54 17-07-2015 05:00:00 23.15 C 67.5000 % 16.8 C
55 17-07-2015 06:00:00 24.6 C 59.3333 % 16.14 C
56 17-07-2015 07:00:00 22.40833 C 68.2500 % 16.27 C
57 17-07-2015 08:00:00 23.53333 C 67.0000 % 17.05 C
58 17-07-2015 09:00:00 24.625 C 64.2500 % 17.42 C
59 17-07-2015 10:00:00 26.875 C 55.7500 % 17.29 C
60 17-07-2015 11:00:00 29.18333 C 47.0000 % 16.71 C
61 17-07-2015 12:00:00 31.44167 C 42.4167 % 17.13 C
62 17-07-2015 13:00:00 33.81667 C 34.5000 % 15.98 C
63 17-07-2015 14:00:00 35.61667 C 23.7500 % 11.77 C
64 17-07-2015 15:00:00 36.24167 C 20.7500 % 10.26 C
65 17-07-2015 16:00:00 36.575 C 20.8333 % 10.59 C
66 17-07-2015 17:00:00 36.50833 C 23.0833 % 12.08 C
67 17-07-2015 18:00:00 35.98333 C 25.9167 % 13.41 C
68 17-07-2015 19:00:00 34.875 C 28.1667 % 13.75 C
69 17-07-2015 20:00:00 32.46667 C 35.3333 % 15.18 C
70 17-07-2015 21:00:00 29.075 C 44.5000 % 15.76 C
71 17-07-2015 22:00:00 26.58333 C 52.4167 % 16.05 C
72 17-07-2015 23:00:00 25.29167 C 57.1667 % 16.21 C
73 18-07-2015 00:00:00 24.325 C 63.4167 % 16.93 C
74 18-07-2015 01:00:00 22.775 C 69.2500 % 16.85 C
75 18-07-2015 02:00:00 22.2 C 69.7500 % 16.41 C
Sensor: Nr:Datum:Temp:Feuchte:Taupunkt:
Aussen-T/F 76 18-07-2015 03:00:00 21.225 C 72.8333 % 16.16 C
77 18-07-2015 04:00:00 20.55 C 76.1667 % 16.21 C
78 18-07-2015 05:00:00 20.66667 C 77.5833 % 16.61 C
79 18-07-2015 06:00:00 20.46667 C 81.7500 % 17.24 C
80 18-07-2015 07:00:00 20.65833 C 82.8333 % 17.64 C
81 18-07-2015 08:00:00 21.51667 C 80.0000 % 17.92 C
82 18-07-2015 09:00:00 22.85 C 73.5000 % 17.86 C
83 18-07-2015 10:00:00 24.93333 C 63.2500 % 17.47 C
84 18-07-2015 11:00:00 26.575 C 55.7500 % 17.01 C
85 18-07-2015 12:00:00 27.44167 C 50.0833 % 16.12 C
86 18-07-2015 13:00:00 27.60833 C 48.0833 % 15.64 C
87 18-07-2015 14:00:00 28 C 45.5000 % 15.13 C
88 18-07-2015 15:00:00 27.16667 C 46.6667 % 14.77 C
89 18-07-2015 16:00:00 26.76667 C 45.3333 % 13.96 C
90 18-07-2015 17:00:00 26.98333 C 44.6667 % 13.93 C
91 18-07-2015 19:00:00 25.86667 C 49.3333 % 14.44 C
92 18-07-2015 20:00:00 25.90833 C 43.7500 % 12.64 C
93 18-07-2015 21:00:00 22.6 C 54.1667 % 12.87 C
94 18-07-2015 22:00:00 20.44167 C 61.5000 % 12.8 C
95 18-07-2015 23:00:00 19.45 C 64.5000 % 12.58 C
96 19-07-2015 00:00:00 18.85 C 67.5000 % 12.71 C
97 19-07-2015 05:00:00 16.3 C 92.0000 % 15 C
98 19-07-2015 07:00:00 16.325 C 94.5000 % 15.44 C
99 19-07-2015 08:00:00 17.15 C 95.0000 % 16.34 C
100 19-07-2015 09:00:00 17.65 C 96.0000 % 17 C
Sensor: Nr:Datum:Temp:Feuchte:Taupunkt:
Aussen-T/F 101 19-07-2015 10:00:00 20.08889 C 91.4444 % 18.65 C
102 19-07-2015 11:00:00 22.53333 C 84.0000 % 19.69 C
103 19-07-2015 12:00:00 22.825 C 80.6667 % 19.33 C
104 19-07-2015 13:00:00 23.225 C 79.3333 % 19.45 C
105 19-07-2015 14:00:00 23.775 C 75.5833 % 19.2 C
106 19-07-2015 15:00:00 24.14167 C 72.1667 % 18.81 C
107 19-07-2015 16:00:00 22.8 C 80.5000 % 19.27 C
108 19-07-2015 17:00:00 23.575 C 68.0000 % 17.32 C
109 19-07-2015 18:00:00 23.175 C 66.1667 % 16.51 C
110 19-07-2015 19:00:00 22.84167 C 66.7500 % 16.33 C
111 19-07-2015 20:00:00 21.96667 C 70.0000 % 16.25 C
112 19-07-2015 21:00:00 21.57143 C 72.8571 % 16.49 C
113 20-07-2015 07:00:00 18.3 C 93.0000 % 17.15 C
114 20-07-2015 08:00:00 18.51667 C 94.3333 % 17.59 C
115 20-07-2015 09:00:00 19.03333 C 94.6667 % 18.16 C
116 20-07-2015 10:00:00 20.10833 C 93.0833 % 18.95 C
117 20-07-2015 11:00:00 21.35 C 90.4167 % 19.72 C
118 20-07-2015 12:00:00 23.075 C 83.7500 % 20.17 C
119 20-07-2015 13:00:00 24.19167 C 78.0000 % 20.11 C
120 20-07-2015 14:00:00 22.525 C 87.5833 % 20.36 C
121 20-07-2015 15:00:00 22.4 C 91.6000 % 20.96 C
122 20-07-2015 16:00:00 24.2 C 86.7500 % 21.85 C
123 20-07-2015 17:00:00 25.24167 C 80.1667 % 21.58 C
124 20-07-2015 18:00:00 24.48333 C 80.6667 % 20.94 C
125 20-07-2015 19:00:00 23.375 C 86.4167 % 20.98 C
Sensor: Nr:Datum:Temp:Feuchte:Taupunkt:
Aussen-T/F 126 20-07-2015 20:00:00 22.35833 C 89.5000 % 20.55 C
127 20-07-2015 21:00:00 21.49167 C 92.1667 % 20.17 C
128 20-07-2015 22:00:00 20.625 C 93.2500 % 19.5 C
129 21-07-2015 02:00:00 18.75 C 95.5000 % 18.02 C
130 21-07-2015 03:00:00 19 C 96.0000 % 18.35 C
131 21-07-2015 04:00:00 18.87143 C 96.0000 % 18.22 C
132 21-07-2015 05:00:00 18.3 C 96.0000 % 17.65 C
133 21-07-2015 07:00:00 18.66 C 96.6000 % 18.11 C
134 21-07-2015 08:00:00 21.46364 C 88.0909 % 19.41 C
135 21-07-2015 09:00:00 22.64167 C 82.0833 % 19.43 C
136 21-07-2015 10:00:00 23.85833 C 76.9167 % 19.56 C
137 21-07-2015 11:00:00 25.13333 C 72.3333 % 19.8 C
138 21-07-2015 12:00:00 26.89167 C 65.0000 % 19.75 C
139 21-07-2015 13:00:00 28.68333 C 58.7500 % 19.81 C
140 21-07-2015 14:00:00 29.30833 C 56.3333 % 19.71 C
141 21-07-2015 15:00:00 29.69167 C 56.0000 % 19.97 C
142 21-07-2015 16:00:00 31.34167 C 48.3333 % 19.12 C
143 21-07-2015 17:00:00 32.31667 C 45.8333 % 19.15 C
144 21-07-2015 18:00:00 31.29167 C 48.4167 % 19.1 C
145 21-07-2015 19:00:00 29.85 C 56.7500 % 20.34 C
146 21-07-2015 20:00:00 28.3 C 63.3333 % 20.66 C
147 21-07-2015 21:00:00 25.35833 C 75.0000 % 20.6 C
148 21-07-2015 22:00:00 22.8 C 85.3333 % 20.21 C
149 21-07-2015 23:00:00 21.875 C 88.5833 % 19.9 C
150 22-07-2015 00:00:00 21.31667 C 90.2500 % 19.65 C
Sensor: Nr:Datum:Temp:Feuchte:Taupunkt:
Aussen-T/F 151 22-07-2015 01:00:00 20.71667 C 91.8333 % 19.34 C
152 22-07-2015 02:00:00 20.15 C 92.9167 % 18.97 C
153 22-07-2015 03:00:00 19.48333 C 93.5000 % 18.41 C
154 22-07-2015 04:00:00 19.09167 C 94.1667 % 18.13 C
155 22-07-2015 05:00:00 18.7 C 95.0000 % 17.88 C
156 22-07-2015 06:00:00 18.80833 C 95.6667 % 18.1 C
157 22-07-2015 07:00:00 19.26 C 96.0000 % 18.61 C
158 22-07-2015 08:00:00 22.01667 C 88.6667 % 20.06 C
159 22-07-2015 09:00:00 22.76667 C 82.5000 % 19.63 C
160 22-07-2015 10:00:00 24.15833 C 77.0000 % 19.87 C
161 22-07-2015 11:00:00 24.80833 C 74.9167 % 20.05 C
162 22-07-2015 12:00:00 26.20833 C 70.2500 % 20.36 C
163 22-07-2015 13:00:00 27.09167 C 65.6667 % 20.11 C
164 22-07-2015 14:00:00 26.78333 C 62.6667 % 19.06 C
165 22-07-2015 15:00:00 27.00833 C 61.8333 % 19.06 C
166 22-07-2015 16:00:00 26.84167 C 62.4167 % 19.05 C
167 22-07-2015 17:00:00 27.56667 C 58.7500 % 18.76 C
168 22-07-2015 18:00:00 27.13333 C 55.1667 % 17.36 C
169 22-07-2015 19:00:00 25.71667 C 57.5000 % 16.7 C
170 22-07-2015 20:00:00 24.625 C 57.7500 % 15.75 C
171 22-07-2015 21:00:00 23.825 C 55.9167 % 14.5 C
172 22-07-2015 22:00:00 22.75833 C 55.7500 % 13.46 C
173 22-07-2015 23:00:00 21.69167 C 62.2500 % 14.16 C
174 23-07-2015 00:00:00 20.00833 C 72.6667 % 14.95 C
175 23-07-2015 01:00:00 18.55833 C 77.4167 % 14.53 C
Sensor: Nr:Datum:Temp:Feuchte:Taupunkt:
Aussen-T/F 176 23-07-2015 02:00:00 17.725 C 78.9167 % 14.02 C
177 23-07-2015 03:00:00 16.96667 C 80.5833 % 13.61 C
178 23-07-2015 04:00:00 16.61667 C 82.5833 % 13.64 C
179 23-07-2015 05:00:00 16.88333 C 82.7500 % 13.93 C
180 23-07-2015 06:00:00 17.16667 C 79.8333 % 13.66 C
181 23-07-2015 07:00:00 17.80833 C 72.4167 % 12.78 C
182 23-07-2015 08:00:00 18.5 C 69.0000 % 12.71 C
183 23-07-2015 09:00:00 19.125 C 66.2500 % 12.68 C
184 23-07-2015 10:00:00 20.55 C 61.5833 % 12.92 C
185 23-07-2015 11:00:00 22.43333 C 56.0000 % 13.23 C
186 23-07-2015 12:00:00 22.49167 C 56.4167 % 13.39 C
187 23-07-2015 13:00:00 23.65 C 53.6667 % 13.7 C
188 23-07-2015 14:00:00 24.55833 C 50.5833 % 13.63 C
189 23-07-2015 15:00:00 24.86667 C 47.8333 % 13.06 C
190 23-07-2015 16:00:00 25.16667 C 47.0833 % 13.09 C
191 23-07-2015 17:00:00 24.55 C 47.6667 % 12.71 C
192 23-07-2015 18:00:00 25.46667 C 46.0000 % 13 C
193 23-07-2015 19:00:00 25.24167 C 46.2500 % 12.88 C
194 23-07-2015 20:00:00 22.375 C 57.5000 % 13.58 C
195 23-07-2015 21:00:00 19.06667 C 71.3333 % 13.76 C
196 23-07-2015 22:00:00 17.75 C 75.8333 % 13.43 C
197 23-07-2015 23:00:00 16.95 C 78.6667 % 13.22 C
198 24-07-2015 00:00:00 16.3 C 79.5833 % 12.77 C
199 24-07-2015 01:00:00 15.33333 C 82.7500 % 12.42 C
200 24-07-2015 02:00:00 14.475 C 86.0000 % 12.16 C
Sensor: Nr:Datum:Temp:Feuchte:Taupunkt:
Aussen-T/F 201 24-07-2015 03:00:00 14.26667 C 87.3333 % 12.19 C
202 24-07-2015 04:00:00 13.91667 C 89.0000 % 12.13 C
203 24-07-2015 05:00:00 13.80833 C 90.0000 % 12.2 C
204 24-07-2015 06:00:00 13.73333 C 91.0000 % 12.29 C
205 24-07-2015 07:00:00 14.52 C 90.4000 % 12.97 C
206 24-07-2015 09:00:00 18.88 C 77.0000 % 14.76 C
207 24-07-2015 10:00:00 20.79167 C 71.0000 % 15.34 C
208 24-07-2015 11:00:00 23.71667 C 61.4167 % 15.86 C
209 24-07-2015 12:00:00 25.90833 C 53.2500 % 15.67 C
210 24-07-2015 13:00:00 26.60833 C 49.4167 % 15.15 C
211 24-07-2015 14:00:00 27.1 C 47.6667 % 15.04 C
212 24-07-2015 15:00:00 28.84167 C 45.0000 % 15.72 C
213 24-07-2015 16:00:00 29.8 C 43.0833 % 15.9 C
214 24-07-2015 17:00:00 29.7 C 45.1667 % 16.55 C
215 24-07-2015 18:00:00 26.91667 C 61.6667 % 18.93 C
216 24-07-2015 19:00:00 25.76667 C 64.7500 % 18.63 C
217 24-07-2015 20:00:00 24.55 C 67.5000 % 18.13 C
218 24-07-2015 21:00:00 23.03333 C 69.9167 % 17.25 C
219 24-07-2015 22:00:00 22.875 C 70.7500 % 17.28 C
220 24-07-2015 23:00:00 19.975 C 85.3333 % 17.44 C
221 25-07-2015 00:00:00 18.375 C 92.0833 % 17.07 C
222 25-07-2015 01:00:00 17.78333 C 94.5833 % 16.9 C
223 25-07-2015 02:00:00 17.46667 C 95.0000 % 16.66 C
224 25-07-2015 03:00:00 16.95833 C 95.5833 % 16.25 C
225 25-07-2015 04:00:00 16.6 C 96.0000 % 15.96 C
Sensor: Nr:Datum:Temp:Feuchte:Taupunkt:
Aussen-T/F 226 25-07-2015 06:00:00 16.8 C 96.0000 % 16.16 C
227 25-07-2015 07:00:00 17.33333 C 93.0000 % 16.19 C
228 25-07-2015 08:00:00 18.89167 C 82.6667 % 15.88 C
229 25-07-2015 09:00:00 20 C 72.8333 % 14.98 C
230 25-07-2015 10:00:00 19.35833 C 78.6667 % 15.56 C
231 25-07-2015 11:00:00 18.20833 C 82.7500 % 15.23 C
232 25-07-2015 12:00:00 18.15833 C 82.0833 % 15.05 C
233 25-07-2015 13:00:00 17.69167 C 78.0833 % 13.83 C
234 25-07-2015 14:00:00 18.83333 C 66.9167 % 12.56 C
235 25-07-2015 15:00:00 18.79167 C 63.8333 % 11.8 C
236 25-07-2015 16:00:00 18.175 C 65.5833 % 11.63 C
237 25-07-2015 17:00:00 17.325 C 68.5833 % 11.5 C
238 25-07-2015 18:00:00 16.81667 C 68.0000 % 10.88 C
239 25-07-2015 19:00:00 16.6 C 67.5000 % 10.56 C
240 25-07-2015 20:00:00 16.13333 C 66.9167 % 9.99 C
241 25-07-2015 21:00:00 15.15833 C 68.6667 % 9.44 C
242 25-07-2015 22:00:00 14.16667 C 72.9167 % 9.39 C
243 25-07-2015 23:00:00 13.43333 C 77.5000 % 9.58 C
244 26-07-2015 00:00:00 12.85833 C 80.8333 % 9.65 C
245 26-07-2015 01:00:00 12.325 C 83.1667 % 9.55 C
246 26-07-2015 02:00:00 12.025 C 84.5833 % 9.51 C
247 26-07-2015 03:00:00 11.86364 C 85.0000 % 9.43 C
248 26-07-2015 04:00:00 10.71111 C 88.8889 % 8.96 C
249 26-07-2015 05:00:00 10.225 C 90.9167 % 8.81 C
250 26-07-2015 06:00:00 9.88333 C 91.9167 % 8.63 C
Sensor: Nr:Datum:Temp:Feuchte:Taupunkt:
Aussen-T/F 251 26-07-2015 07:00:00 10.15 C 92.4167 % 8.98 C
252 26-07-2015 08:00:00 11.63333 C 90.1667 % 10.08 C
253 26-07-2015 09:00:00 14.66667 C 77.8333 % 10.84 C
254 26-07-2015 10:00:00 16.95833 C 66.2500 % 10.62 C
255 26-07-2015 11:00:00 18.98333 C 54.6667 % 9.66 C
256 26-07-2015 12:00:00 20.85 C 48.8333 % 9.7 C
257 26-07-2015 13:00:00 21.25833 C 46.2500 % 9.26 C
258 26-07-2015 14:00:00 22.05833 C 43.2500 % 8.99 C
259 26-07-2015 15:00:00 23.31667 C 39.4167 % 8.75 C
260 26-07-2015 16:00:00 23.26667 C 38.5833 % 8.39 C
261 26-07-2015 17:00:00 21.85 C 44.9167 % 9.37 C
262 26-07-2015 18:00:00 17.875 C 75.0833 % 13.4 C
263 26-07-2015 19:00:00 15.225 C 88.6667 % 13.37 C
264 26-07-2015 20:00:00 14.22857 C 92.5714 % 13.04 C
265 26-07-2015 22:00:00 13.53333 C 95.0000 % 12.75 C
266 26-07-2015 23:00:00 13.3625 C 95.7500 % 12.7 C
267 27-07-2015 00:00:00 13.27273 C 96.3636 % 12.71 C
268 27-07-2015 01:00:00 12.8 C 98.0000 % 12.49 C
269 27-07-2015 02:00:00 12.76667 C 96.0000 % 12.15 C
270 27-07-2015 03:00:00 12.7 C 96.0000 % 12.08 C
271 27-07-2015 04:00:00 13.92727 C 96.0000 % 13.3 C
272 27-07-2015 05:00:00 14.225 C 96.0000 % 13.6 C
273 27-07-2015 06:00:00 14.8 C 96.4167 % 14.24 C
274 27-07-2015 07:00:00 15.55 C 95.5000 % 14.83 C
275 27-07-2015 08:00:00 15.925 C 95.0000 % 15.12 C
Sensor: Nr:Datum:Temp:Feuchte:Taupunkt:
Aussen-T/F 276 27-07-2015 09:00:00 16.175 C 93.2500 % 15.08 C
277 27-07-2015 10:00:00 17.11667 C 87.0833 % 14.95 C
278 27-07-2015 11:00:00 18.40833 C 79.7500 % 14.85 C
279 27-07-2015 12:00:00 18.04167 C 80.7500 % 14.68 C
280 27-07-2015 13:00:00 19.15 C 76.1667 % 14.85 C
281 27-07-2015 14:00:00 18.68333 C 78.4167 % 14.85 C
282 27-07-2015 15:00:00 20.18333 C 70.2500 % 14.59 C
283 27-07-2015 16:00:00 20.63333 C 69.2500 % 14.8 C
284 27-07-2015 17:00:00 20.50833 C 70.2500 % 14.91 C
285 27-07-2015 18:00:00 20.75833 C 70.8333 % 15.27 C
286 27-07-2015 19:00:00 20.9 C 64.9167 % 14.06 C
287 27-07-2015 20:00:00 20.15 C 66.8333 % 13.79 C
288 27-07-2015 21:00:00 19.7 C 67.3333 % 13.48 C
289 27-07-2015 22:00:00 18.94167 C 69.0000 % 13.13 C
290 27-07-2015 23:00:00 18.69167 C 70.8333 % 13.29 C
291 28-07-2015 00:00:00 16.76667 C 79.7500 % 13.25 C
292 28-07-2015 01:00:00 16.05 C 84.1667 % 13.38 C
293 28-07-2015 02:00:00 15.66667 C 86.0833 % 13.35 C
294 28-07-2015 03:00:00 15.61667 C 75.0000 % 11.2 C
295 28-07-2015 04:00:00 14.41667 C 79.3333 % 10.89 C
296 28-07-2015 05:00:00 13.875 C 79.2500 % 10.35 C
297 28-07-2015 06:00:00 13.71667 C 78.3333 % 10.02 C
298 28-07-2015 07:00:00 14.18333 C 77.7500 % 10.36 C
299 28-07-2015 08:00:00 15.20833 C 72.6667 % 10.34 C
300 28-07-2015 09:00:00 16.225 C 66.4167 % 9.97 C
Sensor: Nr:Datum:Temp:Feuchte:Taupunkt:
Aussen-T/F 301 28-07-2015 10:00:00 17.5 C 61.1667 % 9.94 C
302 28-07-2015 11:00:00 18.025 C 59.0833 % 9.92 C
303 28-07-2015 12:00:00 18.68333 C 55.0833 % 9.49 C
304 28-07-2015 13:00:00 19.59167 C 50.2500 % 8.97 C
305 28-07-2015 14:00:00 19.75 C 47.9167 % 8.41 C
306 28-07-2015 15:00:00 21.01667 C 44.5000 % 8.47 C
307 28-07-2015 16:00:00 20.03333 C 46.7500 % 8.31 C
308 28-07-2015 17:00:00 19.49167 C 49.1667 % 8.55 C
309 28-07-2015 18:00:00 19.04167 C 50.5000 % 8.54 C
310 28-07-2015 19:00:00 18.71667 C 51.1667 % 8.43 C
311 28-07-2015 20:00:00 18.13333 C 52.6667 % 8.32 C
312 28-07-2015 21:00:00 17.71667 C 55.6667 % 8.75 C
313 28-07-2015 22:00:00 16.85833 C 62.0833 % 9.56 C
314 28-07-2015 23:00:00 15.32 C 72.2000 % 10.35 C
315 29-07-2015 03:00:00 14.24 C 74.6000 % 9.8 C
316 29-07-2015 05:00:00 12.43333 C 83.0000 % 9.63 C
317 29-07-2015 07:00:00 13.6 C 100.0000 % 13.6 C
318 29-07-2015 08:00:00 14.4 C 75.6667 % 10.16 C
319 29-07-2015 09:00:00 15.51667 C 68.6667 % 9.79 C
320 29-07-2015 10:00:00 16.95 C 60.3333 % 9.22 C
321 29-07-2015 11:00:00 18.475 C 50.3333 % 7.97 C
322 29-07-2015 12:00:00 19.675 C 42.9167 % 6.73 C
323 29-07-2015 13:00:00 20.11667 C 42.5000 % 6.99 C
324 29-07-2015 14:00:00 20.69167 C 40.7500 % 6.89 C
325 29-07-2015 15:00:00 21.31667 C 38.1667 % 6.5 C
Sensor: Nr:Datum:Temp:Feuchte:Taupunkt:
Aussen-T/F 326 29-07-2015 16:00:00 21.3 C 38.3333 % 6.55 C
327 29-07-2015 17:00:00 20.55833 C 42.8333 % 7.5 C
328 29-07-2015 18:00:00 18.5 C 60.4167 % 10.7 C
329 29-07-2015 19:00:00 19.075 C 52.6667 % 9.19 C
330 29-07-2015 20:00:00 18.60833 C 52.9167 % 8.83 C
331 29-07-2015 21:00:00 16.71667 C 59.6667 % 8.84 C
332 29-07-2015 22:00:00 15.25833 C 63.2500 % 8.32 C
333 29-07-2015 23:00:00 13.65 C 70.9167 % 8.48 C
334 30-07-2015 00:00:00 12.24167 C 76.4167 % 8.22 C
335 30-07-2015 01:00:00 11.425 C 79.4167 % 7.99 C
336 30-07-2015 02:00:00 10.975 C 81.7500 % 7.98 C
337 30-07-2015 03:00:00 10.44167 C 84.0000 % 7.86 C
338 30-07-2015 04:00:00 10.2 C 85.2500 % 7.84 C
339 30-07-2015 05:00:00 10.13333 C 86.0000 % 7.9 C
340 30-07-2015 06:00:00 9.89167 C 86.8333 % 7.8 C
341 30-07-2015 07:00:00 10.775 C 85.0000 % 8.36 C
342 30-07-2015 08:00:00 12.26667 C 80.5833 % 9.03 C
343 30-07-2015 09:00:00 13.41667 C 76.8333 % 9.44 C
344 30-07-2015 10:00:00 15.63333 C 69.6667 % 10.11 C
345 30-07-2015 11:00:00 18.25833 C 59.1667 % 10.16 C
346 30-07-2015 12:00:00 18.975 C 55.8333 % 9.96 C
347 30-07-2015 13:00:00 18.94167 C 58.5000 % 10.63 C
348 30-07-2015 14:00:00 20.34167 C 52.4167 % 10.29 C
349 30-07-2015 15:00:00 17.9 C 63.6667 % 10.92 C
350 30-07-2015 16:00:00 16.125 C 74.0000 % 11.49 C
Sensor: Nr:Datum:Temp:Feuchte:Taupunkt:
Aussen-T/F 351 30-07-2015 17:00:00 15.05 C 75.8333 % 10.82 C
352 30-07-2015 18:00:00 15.56667 C 73.7500 % 10.9 C
353 30-07-2015 19:00:00 15.85 C 73.5000 % 11.13 C
354 30-07-2015 20:00:00 15.48 C 80.2000 % 12.09 C
355 31-07-2015 00:00:00 11.15714 C 94.0000 % 10.23 C
356 31-07-2015 01:00:00 10.74286 C 94.0000 % 9.82 C
357 31-07-2015 03:00:00 10.35 C 95.0000 % 9.58 C
358 31-07-2015 04:00:00 10.55833 C 95.0000 % 9.79 C
359 31-07-2015 05:00:00 10.7 C 95.0000 % 9.93 C
360 31-07-2015 07:00:00 10.79091 C 94.9091 % 10.01 C
361 31-07-2015 08:00:00 11.96667 C 92.6667 % 10.82 C
362 31-07-2015 09:00:00 13.53333 C 84.7500 % 11.02 C
363 31-07-2015 10:00:00 15.05 C 75.3333 % 10.72 C
364 31-07-2015 11:00:00 17.075 C 64.5000 % 10.33 C
365 31-07-2015 12:00:00 18.68333 C 57.8333 % 10.22 C
366 31-07-2015 13:00:00 20.1 C 50.7500 % 9.58 C
367 31-07-2015 14:00:00 21.425 C 44.3333 % 8.79 C
368 31-07-2015 15:00:00 22.5 C 40.0833 % 8.27 C
369 31-07-2015 16:00:00 22.525 C 39.6667 % 8.14 C
370 31-07-2015 17:00:00 23.28333 C 37.7500 % 8.08 C
371 31-07-2015 18:00:00 23.70833 C 36.6667 % 8.03 C
372 31-07-2015 19:00:00 22.525 C 39.5833 % 8.11 C
373 31-07-2015 20:00:00 20.63333 C 45.6667 % 8.51 C
374 31-07-2015 21:00:00 16.63333 C 58.4444 % 8.45 C
375 31-07-2015 22:00:00 14.91667 C 69.0000 % 9.29 C
Sensor: Nr:Datum:Temp:Feuchte:Taupunkt:
Aussen-T/F 376 31-07-2015 23:00:00 13.79167 C 71.5833 % 8.75 C
377 01-08-2015 00:00:00 13.20833 C 74.2500 % 8.73 C
378 01-08-2015 01:00:00 13.1 C 75.0833 % 8.79 C
379 01-08-2015 02:00:00 12.85 C 75.3333 % 8.6 C
380 01-08-2015 03:00:00 12.75833 C 74.3333 % 8.31 C
381 01-08-2015 04:00:00 12.66667 C 75.3333 % 8.42 C
382 01-08-2015 05:00:00 12.68333 C 75.8333 % 8.53 C
383 01-08-2015 06:00:00 12.21667 C 78.0000 % 8.5 C
384 01-08-2015 07:00:00 12.79167 C 80.7500 % 9.57 C
385 01-08-2015 08:00:00 14.34167 C 75.0833 % 9.99 C
386 01-08-2015 09:00:00 15.43333 C 70.5000 % 10.1 C
387 01-08-2015 10:00:00 17.15833 C 64.3333 % 10.37 C
388 01-08-2015 11:00:00 20.44167 C 54.4167 % 10.94 C
389 01-08-2015 12:00:00 23.1 C 46.7500 % 11.1 C
390 01-08-2015 13:00:00 25.25833 C 40.5000 % 10.89 C
391 01-08-2015 14:00:00 26.96667 C 37.0000 % 11.04 C
392 01-08-2015 15:00:00 28.00833 C 34.6667 % 10.98 C
393 01-08-2015 16:00:00 28.125 C 33.6667 % 10.64 C
394 01-08-2015 17:00:00 27.60833 C 35.0000 % 10.77 C
395 01-08-2015 18:00:00 26.31667 C 40.7500 % 11.92 C
396 01-08-2015 19:00:00 26.99167 C 37.6667 % 11.34 C
397 01-08-2015 20:00:00 23.00833 C 49.8333 % 11.98 C
398 01-08-2015 21:00:00 20.3 C 59.0833 % 12.05 C
399 01-08-2015 22:00:00 18.6 C 64.5000 % 11.78 C
400 01-08-2015 23:00:00 17.85 C 66.5000 % 11.53 C
Sensor: Nr:Datum:Temp:Feuchte:Taupunkt:
Aussen-T/F 401 02-08-2015 00:00:00 17.325 C 68.6667 % 11.51 C
402 02-08-2015 01:00:00 16.28333 C 72.0833 % 11.25 C
403 02-08-2015 02:00:00 15.575 C 74.5000 % 11.06 C
404 02-08-2015 03:00:00 14.49167 C 79.2500 % 10.94 C
405 02-08-2015 04:00:00 13.5 C 83.2500 % 10.72 C
406 02-08-2015 05:00:00 12.525 C 86.7500 % 10.38 C
407 02-08-2015 06:00:00 12.025 C 88.6667 % 10.21 C
408 02-08-2015 07:00:00 12.33333 C 89.0000 % 10.57 C
409 02-08-2015 08:00:00 13.51667 C 87.6667 % 11.51 C
410 02-08-2015 09:00:00 15.48333 C 82.1667 % 12.46 C
411 02-08-2015 10:00:00 17.90833 C 73.4167 % 13.09 C
412 02-08-2015 11:00:00 22.45 C 57.6667 % 13.69 C
413 02-08-2015 12:00:00 25.24167 C 49.0833 % 13.79 C
414 02-08-2015 13:00:00 27.275 C 42.9167 % 13.57 C
415 02-08-2015 14:00:00 28.58333 C 39.2500 % 13.37 C
416 02-08-2015 15:00:00 29.575 C 36.1667 % 13 C
417 02-08-2015 16:00:00 30.74167 C 32.9167 % 12.58 C
418 02-08-2015 17:00:00 30.49167 C 33.3333 % 12.55 C
419 02-08-2015 18:00:00 29.90833 C 34.3333 % 12.5 C
420 02-08-2015 19:00:00 28.9 C 37.5000 % 12.96 C
421 02-08-2015 20:00:00 25.39167 C 52.9167 % 15.09 C
422 02-08-2015 21:00:00 21.51667 C 56.5833 % 12.53 C
423 02-08-2015 22:00:00 20.38333 C 57.5833 % 11.74 C
424 02-08-2015 23:00:00 18.90833 C 65.0833 % 12.21 C
425 03-08-2015 00:00:00 17.80833 C 68.8333 % 12.01 C
Sensor: Nr:Datum:Temp:Feuchte:Taupunkt:
Aussen-T/F 426 03-08-2015 01:00:00 16.69167 C 72.7500 % 11.78 C
427 03-08-2015 02:00:00 15.60833 C 77.1667 % 11.63 C
428 03-08-2015 03:00:00 14.875 C 79.5833 % 11.38 C
429 03-08-2015 04:00:00 14.225 C 81.7500 % 11.15 C
430 03-08-2015 05:00:00 13.70833 C 83.9167 % 11.04 C
431 03-08-2015 06:00:00 13.41667 C 85.1667 % 10.98 C
432 03-08-2015 07:00:00 13.61667 C 86.5833 % 11.42 C
433 03-08-2015 08:00:00 14.88333 C 84.7500 % 12.34 C
434 03-08-2015 09:00:00 17.125 C 78.7500 % 13.41 C
435 03-08-2015 10:00:00 19.575 C 73.9167 % 14.8 C
436 03-08-2015 11:00:00 25.125 C 53.0000 % 14.87 C
437 03-08-2015 12:00:00 30.45 C 34.2500 % 12.93 C
438 03-08-2015 13:00:00 31.95 C 31.6667 % 13.04 C
439 03-08-2015 14:00:00 33.08333 C 28.3333 % 12.31 C
440 03-08-2015 15:00:00 33.99167 C 26.5833 % 12.12 C
441 03-08-2015 16:00:00 35.05 C 26.5833 % 13.01 C
442 03-08-2015 17:00:00 35.63333 C 24.5833 % 12.31 C
443 03-08-2015 18:00:00 34.86667 C 25.4167 % 12.17 C
444 03-08-2015 19:00:00 29.35833 C 41.8333 % 15.05 C
445 03-08-2015 20:00:00 25.85833 C 48.1667 % 14.07 C
446 03-08-2015 21:00:00 23.81 C 53.4000 % 13.77 C
447 03-08-2015 22:00:00 23.28571 C 56.0000 % 14.02 C
448 03-08-2015 23:00:00 22.75833 C 58.4167 % 14.18 C
449 04-08-2015 00:00:00 21.81667 C 63.0000 % 14.46 C
450 04-08-2015 01:00:00 19.275 C 72.5000 % 14.21 C
Sensor: Nr:Datum:Temp:Feuchte:Taupunkt:
Aussen-T/F 451 04-08-2015 02:00:00 18.09167 C 75.5000 % 13.7 C
452 04-08-2015 03:00:00 17.3 C 77.6667 % 13.36 C
453 04-08-2015 04:00:00 16.74167 C 79.8333 % 13.24 C
454 04-08-2015 05:00:00 16.24167 C 82.4167 % 13.24 C
455 04-08-2015 06:00:00 16.075 C 84.4167 % 13.45 C
456 04-08-2015 07:00:00 17.00833 C 83.6667 % 14.22 C
457 04-08-2015 08:00:00 19.69167 C 75.1667 % 15.17 C
458 04-08-2015 09:00:00 21.90833 C 69.5833 % 16.1 C
459 04-08-2015 10:00:00 23.99167 C 60.5000 % 15.88 C
460 04-08-2015 11:00:00 24.10833 C 60.1667 % 15.9 C
461 04-08-2015 12:00:00 21.38333 C 79.6667 % 17.72 C
462 04-08-2015 13:00:00 19.75833 C 91.5000 % 18.33 C
463 04-08-2015 14:00:00 20.55 C 89.7500 % 18.81 C
464 04-08-2015 15:00:00 21.60833 C 86.0000 % 19.16 C
465 04-08-2015 16:00:00 21.08333 C 90.6667 % 19.5 C
466 04-08-2015 17:00:00 18.89167 C 89.1667 % 17.07 C
467 04-08-2015 18:00:00 18.24167 C 89.5000 % 16.49 C
468 04-08-2015 19:00:00 18.6 C 88.5833 % 16.68 C
469 04-08-2015 20:00:00 18.15833 C 90.8333 % 16.64 C
470 04-08-2015 21:00:00 16.35 C 92.6667 % 15.16 C
471 04-08-2015 22:00:00 15.31667 C 94.0833 % 14.37 C
472 04-08-2015 23:00:00 14.6 C 94.9167 % 13.79 C
473 05-08-2015 00:00:00 14.00833 C 95.1667 % 13.25 C
474 05-08-2015 01:00:00 13.61667 C 96.0000 % 12.99 C
475 05-08-2015 02:00:00 14.03333 C 96.0833 % 13.42 C
Sensor: Nr:Datum:Temp:Feuchte:Taupunkt:
Aussen-T/F 476 05-08-2015 03:00:00 14.1 C 96.0000 % 13.47 C
477 05-08-2015 04:00:00 13.98333 C 96.2500 % 13.4 C
478 05-08-2015 05:00:00 13.725 C 96.6667 % 13.2 C
479 05-08-2015 06:00:00 13.70833 C 97.0000 % 13.24 C
480 05-08-2015 07:00:00 13.83333 C 97.0000 % 13.37 C
481 05-08-2015 08:00:00 14.24167 C 97.0000 % 13.77 C
482 05-08-2015 09:00:00 15.15 C 96.5833 % 14.61 C
483 05-08-2015 10:00:00 16.24167 C 94.0833 % 15.29 C
484 05-08-2015 11:00:00 20.79167 C 79.1667 % 17.05 C
485 05-08-2015 12:00:00 23.39167 C 62.7500 % 15.89 C
486 05-08-2015 13:00:00 25.08333 C 53.8333 % 15.08 C
487 05-08-2015 14:00:00 26.90833 C 46.5000 % 14.48 C
488 05-08-2015 15:00:00 28.10833 C 42.7500 % 14.26 C
489 05-08-2015 16:00:00 28.33333 C 40.5000 % 13.63 C
490 05-08-2015 17:00:00 29.3 C 39.1667 % 13.98 C
491 05-08-2015 18:00:00 28.875 C 42.3333 % 14.8 C
492 05-08-2015 19:00:00 25.675 C 60.4167 % 17.44 C
493 05-08-2015 20:00:00 22.34167 C 71.3333 % 16.9 C
494 05-08-2015 21:00:00 20.625 C 74.9167 % 16.02 C
495 05-08-2015 22:00:00 19.88333 C 77.0000 % 15.73 C
496 05-08-2015 23:00:00 19.05 C 78.9167 % 15.31 C
497 06-08-2015 00:00:00 17.99167 C 81.3333 % 14.75 C
498 06-08-2015 01:00:00 17.13333 C 83.6667 % 14.35 C
499 06-08-2015 02:00:00 16.39167 C 85.8333 % 14.02 C
500 06-08-2015 03:00:00 15.525 C 89.1667 % 13.75 C
Sensor: Nr:Datum:Temp:Feuchte:Taupunkt:
Aussen-T/F 501 06-08-2015 04:00:00 15.13333 C 91.0833 % 13.69 C
502 06-08-2015 05:00:00 14.75 C 91.6667 % 13.41 C
503 06-08-2015 06:00:00 14.54167 C 92.8333 % 13.4 C
504 06-08-2015 07:00:00 14.95833 C 93.0833 % 13.85 C
505 06-08-2015 08:00:00 15.975 C 92.5833 % 14.77 C
506 06-08-2015 09:00:00 18.40833 C 86.1667 % 16.05 C
507 06-08-2015 10:00:00 21.30833 C 75.4167 % 16.78 C
508 06-08-2015 11:00:00 23.80833 C 67.3333 % 17.39 C
509 06-08-2015 12:00:00 26.89167 C 63.0000 % 19.25 C
510 06-08-2015 13:00:00 32.78333 C 41.3333 % 17.92 C
511 06-08-2015 14:00:00 33.65 C 40.1667 % 18.24 C
512 06-08-2015 15:00:00 34.525 C 37.4167 % 17.89 C
513 06-08-2015 16:00:00 36.50833 C 28.0000 % 15.05 C
514 06-08-2015 17:00:00 36.79167 C 26.2500 % 14.29 C
515 06-08-2015 18:00:00 35.85833 C 28.2500 % 14.63 C
516 06-08-2015 19:00:00 30.63333 C 46.2500 % 17.77 C
517 06-08-2015 20:00:00 27.80833 C 56.4167 % 18.34 C
518 06-08-2015 21:00:00 25.73333 C 60.2500 % 17.45 C
519 06-08-2015 22:00:00 24.93333 C 64.1667 % 17.69 C
520 06-08-2015 23:00:00 23.95833 C 67.5000 % 17.57 C
521 07-08-2015 00:00:00 22.475 C 71.5000 % 17.07 C
522 07-08-2015 01:00:00 21 C 75.9167 % 16.59 C
523 07-08-2015 02:00:00 19.91667 C 77.8333 % 15.93 C
524 07-08-2015 03:00:00 19.4 C 75.5000 % 14.96 C
525 07-08-2015 04:00:00 19.76667 C 73.5000 % 14.9 C
Sensor: Nr:Datum:Temp:Feuchte:Taupunkt:
Aussen-T/F 526 07-08-2015 05:00:00 19.5 C 78.5833 % 15.68 C
527 07-08-2015 06:00:00 19.65 C 81.1667 % 16.33 C
528 07-08-2015 07:00:00 20.7 C 80.4167 % 17.21 C
529 07-08-2015 08:00:00 21.21667 C 80.2500 % 17.68 C
530 07-08-2015 09:00:00 21.85833 C 78.1667 % 17.88 C
531 07-08-2015 10:00:00 24.18333 C 70.5833 % 18.5 C
532 07-08-2015 11:00:00 28.125 C 58.1667 % 19.13 C
533 07-08-2015 12:00:00 31.19167 C 48.0833 % 18.9 C
534 07-08-2015 13:00:00 33.36667 C 42.6667 % 18.95 C
535 07-08-2015 14:00:00 35.46667 C 37.2500 % 18.64 C
536 07-08-2015 15:00:00 36.75833 C 35.1667 % 18.86 C
537 07-08-2015 16:00:00 36.91667 C 35.1667 % 18.99 C
538 07-08-2015 17:00:00 36.725 C 38.2500 % 20.18 C
539 07-08-2015 18:00:00 35.075 C 43.3333 % 20.73 C
540 07-08-2015 19:00:00 33.09167 C 47.0833 % 20.29 C
541 07-08-2015 20:00:00 30.54167 C 50.5833 % 19.12 C
542 07-08-2015 21:00:00 27.775 C 60.0833 % 19.32 C
543 07-08-2015 22:00:00 26.53333 C 64.4167 % 19.27 C
544 07-08-2015 23:00:00 25.4 C 69.2500 % 19.35 C
545 08-08-2015 00:00:00 24.25833 C 76.5000 % 19.86 C
546 08-08-2015 01:00:00 22.19167 C 84.5833 % 19.47 C
547 08-08-2015 02:00:00 22.775 C 82.0833 % 19.56 C
548 08-08-2015 03:00:00 23.25 C 79.1667 % 19.44 C
549 08-08-2015 04:00:00 22.66667 C 80.3333 % 19.1 C
550 08-08-2015 05:00:00 22.19167 C 81.8333 % 18.94 C
Sensor: Nr:Datum:Temp:Feuchte:Taupunkt:
Aussen-T/F 551 08-08-2015 06:00:00 21.03333 C 86.6667 % 18.72 C
552 08-08-2015 07:00:00 21.03333 C 90.0000 % 19.33 C
553 08-08-2015 08:00:00 21.98333 C 88.3333 % 19.96 C
554 08-08-2015 09:00:00 22.75 C 84.4167 % 19.98 C
555 08-08-2015 10:00:00 23.4 C 80.5000 % 19.85 C
556 08-08-2015 11:00:00 24.29167 C 76.1667 % 19.82 C
557 08-08-2015 12:00:00 24.20833 C 75.4167 % 19.58 C
558 08-08-2015 13:00:00 24.5 C 74.1667 % 19.6 C
559 08-08-2015 14:00:00 23.18333 C 77.0000 % 18.93 C
560 08-08-2015 15:00:00 22.76667 C 78.5833 % 18.85 C
561 08-08-2015 16:00:00 23.34167 C 76.5000 % 18.98 C
562 08-08-2015 17:00:00 24.90833 C 70.9167 % 19.27 C
563 08-08-2015 18:00:00 24.54167 C 70.0833 % 18.73 C
564 08-08-2015 19:00:00 23.60833 C 73.0833 % 18.5 C
565 08-08-2015 20:00:00 22.33333 C 75.5833 % 17.81 C
566 08-08-2015 21:00:00 21.31667 C 78.1667 % 17.36 C
567 08-08-2015 22:00:00 20.51667 C 80.7500 % 17.09 C
568 08-08-2015 23:00:00 20.63333 C 81.0000 % 17.26 C
569 09-08-2015 00:00:00 20.35833 C 82.0833 % 17.2 C
570 09-08-2015 01:00:00 19.88333 C 84.9167 % 17.27 C
571 09-08-2015 02:00:00 19.54167 C 86.0000 % 17.14 C
572 09-08-2015 03:00:00 19.03333 C 86.9167 % 16.8 C
573 09-08-2015 04:00:00 17.9 C 90.0833 % 16.25 C
574 09-08-2015 05:00:00 17.50833 C 91.2500 % 16.07 C
575 09-08-2015 06:00:00 17.63333 C 91.5833 % 16.25 C
Sensor: Nr:Datum:Temp:Feuchte:Taupunkt:
Aussen-T/F 576 09-08-2015 07:00:00 18.6 C 87.5000 % 16.48 C
577 09-08-2015 08:00:00 19.28333 C 84.0833 % 16.53 C
578 09-08-2015 09:00:00 19.91667 C 82.2500 % 16.8 C
579 09-08-2015 10:00:00 20.875 C 79.5833 % 17.21 C
580 09-08-2015 11:00:00 22.19167 C 76.5000 % 17.86 C
581 09-08-2015 12:00:00 23.40833 C 73.0000 % 18.29 C
582 09-08-2015 13:00:00 24.7 C 70.7500 % 19.03 C
583 09-08-2015 14:00:00 25.675 C 68.2500 % 19.38 C
584 09-08-2015 15:00:00 25.66667 C 68.4167 % 19.41 C
585 09-08-2015 16:00:00 25.41667 C 69.5000 % 19.43 C
586 09-08-2015 17:00:00 26.23333 C 67.6667 % 19.78 C
587 09-08-2015 18:00:00 27.3 C 63.7500 % 19.83 C
588 09-08-2015 19:00:00 26.1 C 66.4167 % 19.35 C
589 09-08-2015 20:00:00 24.94167 C 68.2500 % 18.68 C
590 09-08-2015 21:00:00 23.01667 C 72.7500 % 17.86 C
591 09-08-2015 22:00:00 21.66667 C 76.3333 % 17.32 C
592 09-08-2015 23:00:00 20.85833 C 78.6667 % 17.01 C
593 10-08-2015 00:00:00 20.58333 C 79.4167 % 16.9 C
594 10-08-2015 01:00:00 20.4 C 79.9167 % 16.82 C
595 10-08-2015 02:00:00 20.425 C 79.0000 % 16.66 C
596 10-08-2015 03:00:00 20.01667 C 81.7500 % 16.8 C
597 10-08-2015 04:00:00 19.25833 C 86.4167 % 16.93 C
598 10-08-2015 05:00:00 17.93333 C 92.5000 % 16.7 C
599 10-08-2015 06:00:00 17.48333 C 94.2500 % 16.55 C
600 10-08-2015 07:00:00 17.49167 C 95.0833 % 16.7 C
Sensor: Nr:Datum:Temp:Feuchte:Taupunkt:
Aussen-T/F 601 10-08-2015 08:00:00 17.98333 C 95.3333 % 17.23 C
602 10-08-2015 09:00:00 18.35833 C 94.0000 % 17.38 C
603 10-08-2015 10:00:00 18.95833 C 90.5000 % 17.37 C
604 10-08-2015 11:00:00 20.84167 C 84.5833 % 18.15 C
605 10-08-2015 12:00:00 22.20833 C 77.5833 % 18.1 C
606 10-08-2015 13:00:00 22.98333 C 73.8333 % 18.06 C
607 10-08-2015 14:00:00 23.88333 C 70.2500 % 18.13 C
608 10-08-2015 15:00:00 23.74167 C 69.6667 % 17.87 C
609 10-08-2015 16:00:00 22.575 C 72.2500 % 17.33 C
610 10-08-2015 17:00:00 21.09167 C 77.1667 % 16.94 C
611 10-08-2015 18:00:00 19.81667 C 75.7500 % 15.41 C
612 10-08-2015 19:00:00 18.925 C 79.6667 % 15.33 C
613 10-08-2015 20:00:00 17.84167 C 85.5000 % 15.38 C
614 10-08-2015 21:00:00 17.23333 C 87.0833 % 15.07 C
615 10-08-2015 22:00:00 17.20833 C 88.0000 % 15.2 C
616 10-08-2015 23:00:00 17.225 C 88.4167 % 15.29 C
617 11-08-2015 00:00:00 17.50833 C 88.2500 % 15.54 C
618 11-08-2015 01:00:00 17.575 C 88.0000 % 15.56 C
619 11-08-2015 02:00:00 17.425 C 88.0000 % 15.42 C
620 11-08-2015 03:00:00 17.40833 C 87.8333 % 15.37 C
621 11-08-2015 04:00:00 17.38333 C 88.7500 % 15.51 C
622 11-08-2015 05:00:00 17.36667 C 88.7500 % 15.49 C
623 11-08-2015 06:00:00 17.15833 C 88.1667 % 15.18 C
624 11-08-2015 07:00:00 17.58333 C 87.6667 % 15.51 C
625 11-08-2015 08:00:00 18.175 C 86.6667 % 15.92 C
Sensor: Nr:Datum:Temp:Feuchte:Taupunkt:
Aussen-T/F 626 11-08-2015 09:00:00 19.11667 C 83.0833 % 16.18 C
627 11-08-2015 10:00:00 20.875 C 75.8333 % 16.45 C
628 11-08-2015 11:00:00 22.875 C 68.0000 % 16.66 C
629 11-08-2015 12:00:00 25.04167 C 63.0000 % 17.51 C
630 11-08-2015 13:00:00 26.11667 C 60.7500 % 17.94 C
631 11-08-2015 14:00:00 27.475 C 52.2500 % 16.82 C
632 11-08-2015 15:00:00 27.24167 C 53.8333 % 17.07 C
633 11-08-2015 16:00:00 27.56667 C 57.6667 % 18.47 C
634 11-08-2015 17:00:00 28.24167 C 57.1667 % 18.96 C
635 11-08-2015 18:00:00 27.76667 C 58.5833 % 18.91 C
636 11-08-2015 19:00:00 25.9 C 62.9167 % 18.29 C
637 11-08-2015 20:00:00 24.4 C 68.3333 % 18.19 C
638 11-08-2015 21:00:00 23.15833 C 73.8333 % 18.23 C
639 11-08-2015 22:00:00 22.18333 C 76.9167 % 17.94 C
640 11-08-2015 23:00:00 20.53333 C 82.7500 % 17.5 C
641 12-08-2015 00:00:00 20.46667 C 83.5833 % 17.59 C
642 12-08-2015 01:00:00 19.975 C 83.9167 % 17.17 C
643 12-08-2015 02:00:00 19.075 C 86.6667 % 16.8 C
644 12-08-2015 03:00:00 18.35833 C 89.0833 % 16.53 C
645 12-08-2015 04:00:00 17.73333 C 91.1667 % 16.27 C
646 12-08-2015 05:00:00 17.325 C 92.3333 % 16.07 C
647 12-08-2015 06:00:00 17.11667 C 93.2500 % 16.02 C
648 12-08-2015 07:00:00 17.50833 C 93.8333 % 16.5 C
649 12-08-2015 08:00:00 18.96667 C 91.4167 % 17.54 C
650 12-08-2015 09:00:00 20.35 C 86.0000 % 17.93 C
Sensor: Nr:Datum:Temp:Feuchte:Taupunkt:
Aussen-T/F 651 12-08-2015 10:00:00 21.40833 C 82.5000 % 18.3 C
652 12-08-2015 11:00:00 22.44167 C 79.3333 % 18.69 C
653 12-08-2015 12:00:00 24.125 C 73.5000 % 19.09 C
654 12-08-2015 13:00:00 25.79167 C 68.8333 % 19.63 C
655 12-08-2015 14:00:00 27.55 C 64.0000 % 20.13 C
656 12-08-2015 15:00:00 29.425 C 58.4167 % 20.41 C
657 12-08-2015 16:00:00 30.48333 C 54.7500 % 20.34 C
658 12-08-2015 17:00:00 30.53333 C 54.3333 % 20.26 C
659 12-08-2015 18:00:00 29.84167 C 57.5833 % 20.56 C
660 12-08-2015 19:00:00 29.425 C 59.6667 % 20.75 C
661 12-08-2015 20:00:00 27.05 C 67.6667 % 20.55 C
662 12-08-2015 21:00:00 24.30833 C 77.9167 % 20.21 C
663 12-08-2015 22:00:00 23.06667 C 82.8333 % 19.99 C
664 12-08-2015 23:00:00 22.05 C 86.4167 % 19.68 C
665 13-08-2015 00:00:00 21.225 C 89.1667 % 19.37 C
666 13-08-2015 01:00:00 20.525 C 90.4167 % 18.9 C
667 13-08-2015 02:00:00 19.60833 C 91.7500 % 18.23 C
668 13-08-2015 03:00:00 19.00833 C 92.0000 % 17.68 C
669 13-08-2015 04:00:00 18.51667 C 92.0833 % 17.21 C
670 13-08-2015 05:00:00 18 C 92.5833 % 16.78 C
671 13-08-2015 06:00:00 17.8 C 93.0000 % 16.65 C
672 13-08-2015 07:00:00 17.93333 C 92.7500 % 16.74 C
673 13-08-2015 08:00:00 18.775 C 91.5833 % 17.38 C
674 13-08-2015 09:00:00 20.425 C 86.6667 % 18.13 C
675 13-08-2015 10:00:00 23.025 C 76.1667 % 18.6 C
Sensor: Nr:Datum:Temp:Feuchte:Taupunkt:
Aussen-T/F 676 13-08-2015 11:00:00 26.025 C 66.4167 % 19.28 C
677 13-08-2015 12:00:00 28.85833 C 57.7500 % 19.69 C
678 13-08-2015 13:00:00 31.575 C 49.9167 % 19.85 C
679 13-08-2015 14:00:00 33.35833 C 44.6667 % 19.68 C
680 13-08-2015 15:00:00 33.89167 C 42.2500 % 19.26 C
681 13-08-2015 16:00:00 33.28333 C 44.7500 % 19.64 C
682 13-08-2015 17:00:00 34.26667 C 42.3333 % 19.63 C
683 13-08-2015 18:00:00 34.50833 C 40.4167 % 19.1 C
684 13-08-2015 19:00:00 31.68333 C 51.4167 % 20.43 C
685 13-08-2015 20:00:00 27.34167 C 63.9167 % 19.91 C
686 13-08-2015 21:00:00 26.50833 C 67.2500 % 19.94 C
687 13-08-2015 22:00:00 26.75 C 65.7500 % 19.8 C
688 13-08-2015 23:00:00 24.85833 C 73.0833 % 19.7 C
689 14-08-2015 00:00:00 25.09167 C 68.5833 % 18.91 C
690 14-08-2015 01:00:00 23.96667 C 69.9167 % 18.14 C
691 14-08-2015 02:00:00 22.31667 C 79.5833 % 18.61 C
692 14-08-2015 03:00:00 21.95 C 80.5833 % 18.46 C
693 14-08-2015 04:00:00 21.13333 C 84.5833 % 18.43 C
694 14-08-2015 05:00:00 20.09167 C 89.3333 % 18.28 C
695 14-08-2015 06:00:00 19.775 C 90.0000 % 18.09 C
696 14-08-2015 07:00:00 19.96667 C 90.0000 % 18.28 C
697 14-08-2015 08:00:00 20.98333 C 87.0833 % 18.75 C
698 14-08-2015 09:00:00 22.225 C 79.2500 % 18.46 C
699 14-08-2015 10:00:00 22.61667 C 76.4167 % 18.26 C
700 14-08-2015 11:00:00 22.95833 C 75.8333 % 18.46 C
Sensor: Nr:Datum:Temp:Feuchte:Taupunkt:
Aussen-T/F 701 14-08-2015 12:00:00 25.19167 C 66.5000 % 18.51 C
702 14-08-2015 13:00:00 26.61667 C 60.5000 % 18.34 C
703 14-08-2015 14:00:00 27.44167 C 56.4167 % 18 C
704 14-08-2015 15:00:00 28.14167 C 53.7500 % 17.88 C
705 14-08-2015 16:00:00 28.61667 C 50.9167 % 17.46 C
706 14-08-2015 17:00:00 28.95 C 49.7500 % 17.4 C
707 14-08-2015 18:00:00 28.98333 C 48.0000 % 16.86 C
708 14-08-2015 19:00:00 28.475 C 48.1667 % 16.45 C
709 14-08-2015 20:00:00 26.975 C 53.3333 % 16.68 C
710 14-08-2015 21:00:00 23.675 C 65.3333 % 16.79 C
711 14-08-2015 22:00:00 22.26667 C 69.8333 % 16.49 C
712 14-08-2015 23:00:00 21.76667 C 71.0000 % 16.28 C

Maximal/Minimal-Werte vom 15.07.2015 - 14.08.2015

Sensor Min Max Avg
Temp
(Aussen-T/F)
9.8 °C
26-07-2015  06:00:00
37.5 °C
07-08-2015  17:05:00
21.42 °C
Feuchte
(Aussen-T/F)
18 %
17-07-2015  15:55:00
100 %
19-07-2015  09:40:00
70.53 %
Taupunkt
(Aussen-T/F)
6.5 C
29-07-2015  15:00:00
21.85 C
20-07-2015  16:00:00
15.13 C

Die Daten stammen von einer Davis Vantage Pro 2 Wetter-Station und werden unter Linux mit der Software wview2wettercgi und aufbereitet. Alle Angaben erfolgen ohne Gewähr für ihre Vollständigkeit oder Richtigkeit.
Kontakt: Rainer Krienke krienke@uni-koblenz.de . Meine Webseiten an der Uni Koblenz oder privat.
Version: $Revision: 0.78 $